Time;durP1;ratioP1;P1;durP2;ratioP2;P2;SDS_P1;SDS_P2;PMS_P1;PMS_P2;Temp;Humidity;BMP_temperature;BMP_pressure;BME280_temperature;BME280_humidity;BME280_pressure;Samples;Min_cycle;Max_cycle;Signal;HPM_P1;HPM_P2
2021/01/03 00:01:06;;;;;;;5.68;2.88;;;;;;;3.28;62.21;99195.69;3832675;23;20065;-79
2021/01/03 00:02:37;;;;;;;6.70;3.70;;;;;;;3.27;62.05;99193.16;3827686;23;20032;-78
2021/01/03 00:04:08;;;;;;;;;;;;;;;3.16;62.29;99196.63;3833311;23;20035;-78
2021/01/03 00:05:39;;;;;;;7.55;4.68;;;;;;;3.15;62.28;99187.03;3832061;23;19917;-77
2021/01/03 00:07:10;;;;;;;8.25;4.97;;;;;;;3.10;62.54;99186.56;3832274;23;20029;-78
2021/01/03 00:08:42;;;;;;;;;;;;;;;3.02;62.71;99187.13;3832204;23;22517;-78
2021/01/03 00:10:14;;;;;;;8.40;4.40;;;;;;;3.05;62.55;99196.63;3832738;23;19916;-78
2021/01/03 00:11:45;;;;;;;7.35;4.60;;;;;;;3.04;62.65;99185.22;3830018;23;20044;-77
2021/01/03 00:13:17;;;;;;;7.85;4.32;;;;;;;3.09;62.50;99190.97;3834632;23;20013;-77
2021/01/03 00:14:49;;;;;;;9.95;5.32;;;;;;;3.09;62.30;99187.50;3830373;23;20526;-77
2021/01/03 00:16:21;;;;;;;7.72;4.70;;;;;;;3.06;62.54;99178.03;3834576;23;20036;-77
2021/01/03 00:17:53;;;;;;;9.57;4.88;;;;;;;3.10;62.43;99184.75;3831133;23;20029;-77
2021/01/03 00:19:25;;;;;;;7.53;4.80;;;;;;;3.10;62.44;99178.63;3832536;23;20025;-79
2021/01/03 00:20:58;;;;;;;9.15;4.95;;;;;;;3.07;62.58;99182.31;3831744;23;20014;-77
2021/01/03 00:22:29;;;;;;;7.95;4.85;;;;;;;3.01;62.79;99179.34;3833333;23;20009;-77
2021/01/03 00:24:00;;;;;;;9.27;4.97;;;;;;;3.01;62.75;99177.53;3827937;23;20029;-80
2021/01/03 00:25:32;;;;;;;7.90;4.63;;;;;;;3.09;62.66;99182.22;3833510;23;20047;-78
2021/01/03 00:27:03;;;;;;;7.25;4.57;;;;;;;3.12;62.70;99185.47;3830475;23;20056;-78
2021/01/03 00:28:35;;;;;;;6.68;3.60;;;;;;;3.12;63.07;99176.69;3833073;23;20025;-80
2021/01/03 00:30:08;;;;;;;10.65;5.65;;;;;;;3.12;63.10;99172.28;3829584;23;20013;-77
2021/01/03 00:31:43;;;;;;;8.63;4.57;;;;;;;3.11;63.04;99170.59;3834117;23;20040;-78
2021/01/03 00:33:14;;;;;;;8.95;5.22;;;;;;;3.13;63.18;99175.75;3832247;23;20005;-78
2021/01/03 00:34:45;;;;;;;7.07;4.18;;;;;;;3.13;63.18;99178.38;3833055;23;20025;-78
2021/01/03 00:36:17;;;;;;;;;;;;;;;3.02;63.56;99178.38;3832941;23;20051;-80
2021/01/03 00:37:49;;;;;;;8.10;3.92;;;;;;;3.09;63.45;99171.66;3833982;23;19920;-80
2021/01/03 00:39:21;;;;;;;8.38;4.32;;;;;;;3.09;63.44;99171.66;3832325;23;20036;-77
2021/01/03 00:40:53;;;;;;;7.30;3.97;;;;;;;3.13;63.42;99170.44;3835757;23;20021;-79
2021/01/03 00:42:25;;;;;;;8.77;4.70;;;;;;;3.15;63.37;99171.19;3832388;23;20040;-77
2021/01/03 00:43:56;;;;;;;7.93;4.20;;;;;;;3.17;63.43;99177.19;3835775;23;20017;-78
2021/01/03 00:45:28;;;;;;;7.78;4.45;;;;;;;3.14;63.42;99169.50;3832885;23;20017;-78
2021/01/03 00:47:02;;;;;;;7.03;3.58;;;;;;;3.14;63.42;99169.50;3835235;23;20024;-78
2021/01/03 00:48:33;;;;;;;7.18;3.92;;;;;;;3.16;63.62;99175.50;3832965;23;20032;-78
2021/01/03 00:50:07;;;;;;;8.18;4.03;;;;;;;3.17;63.50;99174.56;3834922;23;20009;-77
2021/01/03 00:51:39;;;;;;;7.13;3.60;;;;;;;3.18;63.59;99176.25;3832695;23;20397;-77
2021/01/03 00:53:09;;;;;;;7.70;4.13;;;;;;;3.21;63.66;99175.97;3834236;23;20013;-78
2021/01/03 00:54:40;;;;;;;;;;;;;;;3.06;63.98;99183.31;3830527;23;20057;-77
2021/01/03 00:56:12;;;;;;;7.70;4.22;;;;;;;3.15;63.74;99171.19;3834443;23;20056;-79
2021/01/03 00:57:45;;;;;;;7.10;3.75;;;;;;;3.18;63.74;99181.53;3831322;23;20041;-77
2021/01/03 00:59:16;;;;;;;8.82;5.03;;;;;;;3.16;63.81;99186.06;3833498;23;20037;-79
2021/01/03 01:00:47;;;;;;;7.20;4.28;;;;;;;3.15;63.79;99176.47;3830585;23;20018;-78
2021/01/03 01:02:20;;;;;;;8.95;4.43;;;;;;;3.18;63.68;99175.38;3833563;23;20018;-77
2021/01/03 01:03:52;;;;;;;7.43;4.40;;;;;;;3.20;63.78;99179.59;3831588;23;20029;-77
2021/01/03 01:05:24;;;;;;;8.00;4.78;;;;;;;3.22;63.77;99184.75;3832522;23;20037;-77
2021/01/03 01:06:56;;;;;;;9.13;4.93;;;;;;;3.24;63.78;99178.41;3832394;23;20030;-78
2021/01/03 01:08:27;;;;;;;8.07;4.93;;;;;;;3.16;63.76;99177.31;3830402;23;20034;-78
2021/01/03 01:09:58;;;;;;;8.05;4.57;;;;;;;3.18;63.76;99175.38;3832992;23;20026;-78
2021/01/03 01:11:30;;;;;;;9.85;5.85;;;;;;;3.09;63.69;99175.13;3831459;23;20025;-77
2021/01/03 01:13:02;;;;;;;7.20;4.53;;;;;;;3.08;63.74;99175.25;3834489;23;20417;-77
2021/01/03 01:14:34;;;;;;;8.43;5.10;;;;;;;3.14;63.61;99185.34;3830236;23;20013;-78
2021/01/03 01:16:07;;;;;;;8.95;4.80;;;;;;;3.08;63.54;99180.53;3833411;23;20065;-77
2021/01/03 01:17:40;;;;;;;9.80;5.40;;;;;;;3.04;63.62;99181.72;3831373;23;20009;-77
2021/01/03 01:19:12;;;;;;;8.13;5.13;;;;;;;3.10;63.63;99189.19;3832948;23;20036;-78
2021/01/03 01:20:43;;;;;;;7.53;4.78;;;;;;;3.16;63.59;99182.59;3830683;23;20017;-79
2021/01/03 01:22:15;;;;;;;9.23;5.22;;;;;;;3.09;63.62;99176.94;3832538;23;20032;-79
2021/01/03 01:23:46;;;;;;;8.45;4.40;;;;;;;3.12;63.56;99181.97;3827299;23;20129;-77
2021/01/03 01:25:21;;;;;;;9.00;5.57;;;;;;;3.11;63.63;99177.69;3834463;23;20069;-78
2021/01/03 01:26:52;;;;;;;8.73;4.97;;;;;;;3.10;63.56;99173.34;3829033;23;20065;-78
2021/01/03 01:28:24;;;;;;;9.93;5.30;;;;;;;3.11;63.63;99180.31;3833007;23;20029;-78
2021/01/03 01:29:55;;;;;;;8.88;4.82;;;;;;;3.08;63.84;99177.91;3829180;23;20024;-78
2021/01/03 01:31:27;;;;;;;7.43;4.43;;;;;;;3.15;63.67;99179.09;3832445;23;20152;-77
2021/01/03 01:33:01;;;;;;;10.32;5.80;;;;;;;3.12;63.70;99182.84;3830779;23;20029;-78
2021/01/03 01:34:32;;;;;;;8.98;5.38;;;;;;;3.03;64.07;99182.69;3832261;23;20036;-77
2021/01/03 01:36:05;;;;;;;8.82;5.03;;;;;;;3.07;64.12;99184.16;3831671;23;20002;-81
2021/01/03 01:37:37;;;;;;;10.60;5.30;;;;;;;3.12;64.11;99180.19;3831461;23;20070;-78
2021/01/03 01:39:09;;;;;;;9.10;4.95;;;;;;;3.12;63.95;99177.56;3830372;23;20006;-78
2021/01/03 01:40:42;;;;;;;9.13;5.28;;;;;;;3.04;64.22;99184.38;3833252;23;20066;-79
2021/01/03 01:42:13;;;;;;;9.32;5.38;;;;;;;3.05;64.19;99180.78;3828646;23;20056;-77
2021/01/03 01:43:44;;;;;;;;;;;;;;;2.95;64.38;99185.94;3833223;23;20032;-77
2021/01/03 01:45:19;;;;;;;8.40;5.13;;;;;;;2.95;64.35;99180.66;3832313;23;19922;-77
2021/01/03 01:46:57;;;;;;;8.52;4.55;;;;;;;3.03;64.18;99174.75;3833666;23;20025;-77
2021/01/03 01:48:34;;;;;;;8.70;5.03;;;;;;;3.09;64.17;99188.34;3832174;23;20001;-78
2021/01/03 01:50:09;;;;;;;9.15;4.90;;;;;;;3.04;64.39;99182.59;3833059;23;20021;-77
2021/01/03 01:51:45;;;;;;;8.77;5.47;;;;;;;3.01;64.27;99174.88;3831209;23;20013;-77
2021/01/03 01:53:26;;;;;;;9.38;5.22;;;;;;;2.99;64.45;99181.25;3834108;23;20005;-78
2021/01/03 01:55:01;;;;;;;10.18;5.50;;;;;;;3.01;64.53;99181.97;3832400;23;20195;-78
2021/01/03 01:56:40;;;;;;;8.32;4.68;;;;;;;3.08;64.35;99185.81;3829894;23;20096;-80
2021/01/03 01:58:19;;;;;;;9.93;5.28;;;;;;;3.01;64.53;99180.16;3830742;23;20078;-78
2021/01/03 01:59:59;;;;;;;8.63;5.00;;;;;;;2.94;64.70;99179.78;3830950;23;20028;-77
2021/01/03 02:01:38;;;;;;;9.13;5.18;;;;;;;2.92;64.74;99176.44;3834269;23;20029;-77
2021/01/03 02:03:18;;;;;;;9.02;5.63;;;;;;;2.91;64.82;99176.53;3831340;23;20013;-78
2021/01/03 02:04:56;;;;;;;9.77;5.15;;;;;;;2.87;64.74;99177.75;3834640;23;20084;-77
2021/01/03 02:06:36;;;;;;;8.90;4.50;;;;;;;2.95;64.78;99178.84;3831638;23;20036;-77
2021/01/03 02:08:11;;;;;;;10.47;5.53;;;;;;;2.96;64.74;99183.16;3834278;23;20009;-78
2021/01/03 02:09:58;;;;;;;10.48;5.10;;;;;;;2.87;64.94;99181.22;3831930;23;20315;-78
2021/01/03 02:11:31;;;;;;;11.23;6.18;;;;;;;2.85;65.17;99172.56;3832281;23;20342;-77
2021/01/03 02:13:12;;;;;;;9.50;5.90;;;;;;;2.89;65.21;99187.22;3834949;23;20009;-78
2021/01/03 02:14:43;;;;;;;9.45;5.32;;;;;;;2.88;65.30;99184.72;3831057;23;20005;-78
2021/01/03 02:16:16;;;;;;;9.57;5.03;;;;;;;2.88;65.38;99177.63;3833897;23;20140;-77
2021/01/03 02:17:48;;;;;;;8.80;5.38;;;;;;;2.86;65.70;99187.47;3831777;23;20005;-76
2021/01/03 02:19:22;;;;;;;12.02;6.97;;;;;;;2.83;65.97;99186.84;3835290;23;20052;-76
2021/01/03 02:21:10;;;;;;;10.15;5.47;;;;;;;2.72;66.56;99175.31;3833064;23;20009;-77
2021/01/03 02:22:45;;;;;;;10.73;6.18;;;;;;;2.68;66.88;99184.44;3833710;23;20026;-76
2021/01/03 02:24:26;;;;;;;9.32;6.07;;;;;;;2.58;67.58;99186.06;3830930;23;20036;-77
2021/01/03 02:26:01;;;;;;;9.07;5.30;;;;;;;2.59;67.75;99182.47;3834395;23;20025;-77
2021/01/03 02:27:39;;;;;;;10.82;6.05;;;;;;;2.59;68.22;99185.94;3832027;23;20005;-76
2021/01/03 02:29:14;;;;;;;10.85;6.05;;;;;;;2.58;68.08;99184.25;3834985;23;20029;-77
2021/01/03 02:30:50;;;;;;;9.43;5.15;;;;;;;2.51;68.69;99190.97;3830901;23;20033;-77
2021/01/03 02:32:22;;;;;;;10.18;5.97;;;;;;;2.52;68.86;99189.16;3835507;23;20025;-77
2021/01/03 02:33:56;;;;;;;10.15;5.43;;;;;;;2.54;69.48;99196.03;3832549;23;20001;-77
2021/01/03 02:35:28;;;;;;;10.15;5.65;;;;;;;2.48;69.62;99183.25;3832547;23;20021;-76
2021/01/03 02:37:03;;;;;;;9.23;5.50;;;;;;;2.54;69.53;99182.81;3835253;23;20065;-77
2021/01/03 02:38:42;;;;;;;10.43;5.65;;;;;;;2.47;70.00;99177.16;3831583;23;20022;-80
2021/01/03 02:40:22;;;;;;;11.10;6.47;;;;;;;2.42;70.47;99191.63;3835481;23;20068;-77
2021/01/03 02:41:58;;;;;;;9.52;5.40;;;;;;;2.40;70.89;99181.22;3832080;23;20023;-77
2021/01/03 02:43:29;;;;;;;9.13;5.10;;;;;;;2.36;71.08;99176.28;3834277;23;20005;-78
2021/01/03 02:45:02;;;;;;;;;;;;;;;2.29;72.33;99184.63;3831430;23;20033;-76
2021/01/03 02:46:35;;;;;;;10.95;5.20;;;;;;;2.37;71.56;99184.06;3832846;23;19904;-78
2021/01/03 02:48:08;;;;;;;10.18;5.80;;;;;;;2.37;71.57;99181.44;3829596;23;20033;-77
2021/01/03 02:49:40;;;;;;;10.48;5.57;;;;;;;2.28;72.05;99182.13;3831965;23;20036;-79
2021/01/03 02:51:11;;;;;;;9.10;4.30;;;;;;;2.32;72.27;99183.56;3828339;23;20037;-79
2021/01/03 02:52:44;;;;;;;11.35;5.35;;;;;;;2.36;72.29;99192.94;3831220;23;20013;-78
2021/01/03 02:54:15;;;;;;;7.43;4.78;;;;;;;2.34;72.49;99182.50;3828060;23;20032;-79
2021/01/03 02:55:46;;;;;;;10.18;5.32;;;;;;;2.27;72.81;99183.06;3830266;23;20026;-78
2021/01/03 02:57:19;;;;;;;8.95;4.85;;;;;;;2.30;72.97;99185.47;3828744;23;20021;-80
2021/01/03 02:58:49;;;;;;;9.20;4.65;;;;;;;2.25;73.20;99188.47;3828865;23;20029;-79
2021/01/03 03:00:23;;;;;;;;;;;;;;;2.23;73.98;99195.63;3828067;23;20048;-77
2021/01/03 03:01:55;;;;;;;8.15;4.57;;;;;;;2.25;73.34;99180.53;3830305;23;19939;-80
2021/01/03 03:03:26;;;;;;;9.27;5.00;;;;;;;2.29;73.40;99186.44;3826048;23;20029;-79
2021/01/03 03:04:57;;;;;;;8.18;4.43;;;;;;;2.29;73.34;99199.63;3830559;23;20446;-79
2021/01/03 03:06:28;;;;;;;;;;;;;;;2.22;74.86;99198.41;3826578;23;20035;-79
2021/01/03 03:07:59;;;;;;;9.57;4.70;;;;;;;2.27;73.84;99196.25;3829225;23;19936;-79
2021/01/03 03:09:30;;;;;;;;;;;;;;;2.22;75.15;99198.41;3829248;23;20028;-80
2021/01/03 03:11:01;;;;;;;10.75;5.05;;;;;;;2.27;73.98;99189.16;3828983;23;19948;-78
2021/01/03 03:12:34;;;;;;;8.90;4.72;;;;;;;2.28;73.87;99188.22;3827853;23;20025;-79
2021/01/03 03:14:06;;;;;;;9.50;4.95;;;;;;;2.25;74.01;99183.19;3829961;23;20040;-78
2021/01/03 03:15:38;;;;;;;8.80;3.88;;;;;;;2.27;74.08;99186.53;3827370;23;20025;-77
2021/01/03 03:17:09;;;;;;;8.60;4.10;;;;;;;2.28;74.10;99188.22;3830378;23;20021;-80
2021/01/03 03:18:41;;;;;;;8.68;4.88;;;;;;;2.30;74.26;99186.31;3825934;23;20032;-79
2021/01/03 03:20:13;;;;;;;10.52;5.03;;;;;;;2.28;74.33;99177.66;3830906;23;20036;-78
2021/01/03 03:21:44;;;;;;;11.18;5.75;;;;;;;2.37;74.29;99181.44;3827539;23;20188;-80
2021/01/03 03:23:15;;;;;;;9.50;5.63;;;;;;;2.34;74.46;99181.66;3828286;23;20025;-77
2021/01/03 03:24:46;;;;;;;9.25;5.07;;;;;;;2.36;74.52;99184.19;3826480;23;20021;-79
2021/01/03 03:26:18;;;;;;;9.13;5.47;;;;;;;2.32;74.52;99179.13;3832572;23;20013;-78
2021/01/03 03:27:50;;;;;;;8.70;4.68;;;;;;;2.31;74.57;99182.72;3829135;23;20025;-77
2021/01/03 03:29:23;;;;;;;8.77;4.57;;;;;;;2.31;74.76;99187.16;3832896;23;20029;-80
2021/01/03 03:30:54;;;;;;;9.10;4.88;;;;;;;2.26;74.88;99179.59;3829830;23;20049;-78
2021/01/03 03:32:25;;;;;;;9.25;4.43;;;;;;;2.28;74.89;99180.31;3829936;23;20078;-79
2021/01/03 03:33:57;;;;;;;;;;;;;;;2.19;75.65;99188.88;3833995;23;20005;-78
2021/01/03 03:35:30;;;;;;;10.95;6.22;;;;;;;2.25;74.97;99182.31;3830675;23;19932;-77
2021/01/03 03:37:01;;;;;;;11.82;6.15;;;;;;;2.24;75.18;99186.78;3834435;23;20030;-78
2021/01/03 03:38:33;;;;;;;12.88;6.35;;;;;;;2.25;75.34;99182.31;3830441;23;20029;-78
2021/01/03 03:40:05;;;;;;;12.68;6.72;;;;;;;2.26;75.16;99187.50;3834757;23;20041;-78
2021/01/03 03:41:37;;;;;;;10.63;6.13;;;;;;;2.26;75.38;99184.00;3832478;23;20020;-78
2021/01/03 03:43:10;;;;;;;10.68;4.97;;;;;;;2.21;75.46;99180.88;3834005;23;20042;-78
2021/01/03 03:44:40;;;;;;;12.63;7.35;;;;;;;2.20;75.61;99171.28;3832922;23;20029;-77
2021/01/03 03:46:11;;;;;;;;;;;;;;;2.11;76.30;99185.97;3835821;23;20025;-77
2021/01/03 03:47:43;;;;;;;11.60;6.57;;;;;;;2.16;75.92;99183.84;3832710;23;19911;-77
2021/01/03 03:49:14;;;;;;;13.02;7.35;;;;;;;2.10;75.73;99176.38;3835962;23;20063;-77
2021/01/03 03:50:45;;;;;;;;;;;;;;;2.01;76.91;99181.38;3832737;23;20077;-78
2021/01/03 03:52:15;;;;;;;7.93;4.13;;;;;;;2.08;76.11;99175.66;3835672;23;20078;-77
2021/01/03 03:53:47;;;;;;;;;;;;;;;2.05;77.49;99181.16;3833725;23;20012;-77
2021/01/03 03:55:18;;;;;;;12.10;6.28;;;;;;;2.14;76.13;99172.56;3834933;23;19923;-77
2021/01/03 03:56:51;;;;;;;10.52;5.55;;;;;;;2.14;76.42;99173.41;3833613;23;20009;-77
2021/01/03 03:58:23;;;;;;;10.50;5.93;;;;;;;2.15;76.02;99161.06;3834794;23;20009;-77
2021/01/03 03:59:54;;;;;;;10.88;5.60;;;;;;;2.15;76.07;99175.09;3832563;23;20022;-77
2021/01/03 04:01:25;;;;;;;;;;;;;;;2.02;76.87;99174.31;3837018;23;20020;-77
2021/01/03 04:02:56;;;;;;;11.55;6.25;;;;;;;2.05;76.48;99171.44;3831485;23;19904;-78
2021/01/03 04:04:28;;;;;;;11.05;6.43;;;;;;;1.99;76.44;99167.44;3835777;23;20009;-78
2021/01/03 04:05:59;;;;;;;11.20;6.68;;;;;;;1.99;76.52;99167.44;3834041;23;20010;-77
2021/01/03 04:07:30;;;;;;;11.32;6.90;;;;;;;1.94;76.68;99169.59;3834505;23;20020;-77
2021/01/03 04:09:01;;;;;;;12.73;7.63;;;;;;;1.91;76.68;99164.53;3832832;23;20017;-77
2021/01/03 04:10:32;;;;;;;;;;;;;;;1.79;77.64;99175.97;3835172;23;20090;-77
2021/01/03 04:12:04;;;;;;;13.63;6.97;;;;;;;1.79;77.33;99170.72;3833136;23;19905;-77
2021/01/03 04:13:36;;;;;;;12.57;6.30;;;;;;;1.82;77.14;99170.47;3835672;23;20014;-77
2021/01/03 04:15:10;;;;;;;14.90;8.98;;;;;;;1.77;77.29;99167.34;3832415;23;20010;-76
2021/01/03 04:16:46;;;;;;;12.52;7.45;;;;;;;1.77;77.51;99177.88;3836063;23;20025;-78
2021/01/03 04:18:17;;;;;;;12.77;6.95;;;;;;;1.79;77.63;99174.16;3832996;23;20010;-78
2021/01/03 04:19:48;;;;;;;14.40;7.25;;;;;;;1.77;77.60;99168.16;3835014;23;20021;-77
2021/01/03 04:21:19;;;;;;;11.50;6.68;;;;;;;1.81;77.56;99176.69;3833363;23;20029;-77
2021/01/03 04:22:51;;;;;;;13.98;8.30;;;;;;;1.79;77.36;99176.81;3835073;23;20009;-78
2021/01/03 04:24:23;;;;;;;14.82;8.23;;;;;;;1.73;77.67;99172.00;3831132;23;20089;-78
2021/01/03 04:25:54;;;;;;;13.85;7.00;;;;;;;1.75;77.72;99172.69;3835139;23;20043;-77
2021/01/03 04:27:26;;;;;;;12.30;7.50;;;;;;;1.79;77.93;99174.16;3832594;23;20006;-78
2021/01/03 04:28:58;;;;;;;13.38;7.82;;;;;;;1.77;77.75;99159.44;3835795;23;20020;-78
2021/01/03 04:30:30;;;;;;;12.90;7.10;;;;;;;1.83;77.75;99172.16;3832004;23;20032;-77
2021/01/03 04:32:04;;;;;;;10.68;5.43;;;;;;;1.81;77.79;99163.50;3835202;23;20026;-77
2021/01/03 04:33:35;;;;;;;16.23;8.70;;;;;;;1.78;77.77;99161.94;3832828;23;20240;-77
2021/01/03 04:35:08;;;;;;;13.15;7.35;;;;;;;1.79;77.93;99168.91;3834597;23;20032;-78
2021/01/03 04:36:39;;;;;;;14.98;8.32;;;;;;;1.73;78.18;99160.59;3832307;23;20024;-77
2021/01/03 04:38:10;;;;;;;14.07;8.88;;;;;;;1.77;78.11;99168.16;3833513;23;20009;-78
2021/01/03 04:39:41;;;;;;;14.00;7.68;;;;;;;1.73;78.17;99160.59;3831131;23;20028;-77
2021/01/03 04:41:13;;;;;;;;;;;;;;;1.65;78.79;99174.34;3836067;23;20024;-78
2021/01/03 04:42:45;;;;;;;14.77;7.53;;;;;;;1.66;78.31;99166.31;3832545;23;19932;-78
2021/01/03 04:44:22;;;;;;;16.70;8.52;;;;;;;1.68;78.31;99177.59;3834381;23;20065;-80
2021/01/03 04:46:01;;;;;;;13.55;6.63;;;;;;;1.73;78.09;99172.00;3830802;23;20115;-80
2021/01/03 04:47:37;;;;;;;13.13;7.15;;;;;;;1.70;78.24;99167.75;3830819;23;20059;-77
2021/01/03 04:49:18;;;;;;;18.38;8.60;;;;;;;1.71;78.31;99174.72;3835367;23;20009;-77
2021/01/03 04:51:25;;;;;;;13.77;7.30;;;;;;;1.64;78.46;99167.38;3832366;23;20016;-77
2021/01/03 04:53:15;;;;;;;15.40;9.40;;;;;;;1.63;78.38;99163.88;3834721;23;20024;-78
2021/01/03 04:54:54;;;;;;;14.90;8.77;;;;;;;1.65;78.43;99163.78;3832380;23;20013;-78
2021/01/03 04:56:44;;;;;;;13.45;7.10;;;;;;;1.69;78.45;99162.59;3832399;23;20020;-78
2021/01/03 04:58:31;;;;;;;12.27;7.10;;;;;;;1.65;78.38;99169.88;3835164;23;20053;-77
2021/01/03 05:00:05;;;;;;;16.48;9.23;;;;;;;1.67;78.38;99167.13;3832954;23;20006;-78
2021/01/03 05:02:13;;;;;;;12.30;6.88;;;;;;;1.65;78.55;99175.16;3835678;23;20012;-77
2021/01/03 05:04:12;;;;;;;17.88;9.07;;;;;;;1.63;78.70;99171.78;3831894;23;20013;-78
2021/01/03 05:05:47;;;;;;;11.32;6.32;;;;;;;1.66;78.63;99171.56;3833168;23;20014;-77
2021/01/03 05:07:27;;;;;;;13.30;7.57;;;;;;;1.73;78.30;99171.13;3834369;23;20028;-78
2021/01/03 05:09:02;;;;;;;14.07;7.20;;;;;;;1.69;78.31;99176.63;3831727;23;20425;-78
2021/01/03 05:10:33;;;;;;;13.25;6.85;;;;;;;1.69;78.40;99166.09;3834728;23;20026;-77
2021/01/03 05:12:19;;;;;;;11.30;6.72;;;;;;;1.68;78.59;99172.31;3832596;23;20021;-77
2021/01/03 05:14:12;;;;;;;11.63;6.35;;;;;;;1.64;78.68;99176.09;3836010;23;20052;-78
2021/01/03 05:15:46;;;;;;;11.77;6.38;;;;;;;1.64;78.71;99172.66;3833486;23;20013;-79
2021/01/03 05:17:18;;;;;;;12.15;7.07;;;;;;;1.70;78.58;99180.94;3836069;23;20036;-78
2021/01/03 05:18:49;;;;;;;13.25;6.32;;;;;;;1.70;78.88;99177.47;3831646;23;20018;-79
2021/01/03 05:20:21;;;;;;;14.70;8.48;;;;;;;1.68;78.53;99180.22;3834735;23;20009;-78
2021/01/03 05:21:55;;;;;;;11.85;7.05;;;;;;;1.66;78.85;99181.25;3833375;23;20009;-78
2021/01/03 05:23:28;;;;;;;13.90;6.95;;;;;;;1.66;78.87;99179.47;3831932;23;20025;-78
2021/01/03 05:25:02;;;;;;;15.50;8.10;;;;;;;1.63;79.02;99179.69;3833500;23;20036;-78
2021/01/03 05:26:36;;;;;;;12.10;7.05;;;;;;;1.63;78.95;99179.69;3831740;23;20017;-78
2021/01/03 05:28:12;;;;;;;14.23;8.57;;;;;;;1.66;78.84;99187.38;3834332;23;20041;-78
2021/01/03 05:29:45;;;;;;;15.20;8.18;;;;;;;1.65;79.00;99184.88;3832626;23;20021;-77
2021/01/03 05:31:21;;;;;;;12.00;6.60;;;;;;;1.66;79.00;99181.25;3834816;23;20010;-77
2021/01/03 05:32:52;;;;;;;12.48;6.70;;;;;;;1.68;79.06;99182.84;3832466;23;20064;-78
2021/01/03 05:34:31;;;;;;;13.30;6.75;;;;;;;1.67;78.89;99188.22;3834745;23;20061;-77
2021/01/03 05:36:06;;;;;;;12.38;6.22;;;;;;;1.69;78.94;99189.81;3832187;23;20014;-77
2021/01/03 05:37:43;;;;;;;11.15;5.93;;;;;;;1.66;79.06;99189.16;3835852;23;20040;-77
2021/01/03 05:39:29;;;;;;;11.82;6.25;;;;;;;1.68;78.95;99187.28;3831566;23;20020;-77
2021/01/03 05:41:11;;;;;;;13.25;7.30;;;;;;;1.69;78.89;99191.59;3835384;23;20025;-77
2021/01/03 05:42:43;;;;;;;10.18;6.13;;;;;;;1.74;78.91;99193.91;3831702;23;20014;-78
2021/01/03 05:44:21;;;;;;;11.85;5.85;;;;;;;1.76;78.79;99186.72;3835007;23;20061;-77
2021/01/03 05:46:06;;;;;;;10.25;5.65;;;;;;;1.79;78.76;99182.06;3833093;23;20005;-77
2021/01/03 05:47:41;;;;;;;10.90;6.15;;;;;;;1.83;78.75;99190.59;3831376;23;20013;-77
2021/01/03 05:49:21;;;;;;;13.38;6.53;;;;;;;1.85;78.66;99192.16;3834990;23;20091;-77
2021/01/03 05:50:53;;;;;;;14.15;6.95;;;;;;;1.93;78.79;99198.72;3831499;23;20292;-78
2021/01/03 05:52:29;;;;;;;10.93;5.88;;;;;;;1.93;78.53;99182.91;3834299;23;20021;-77
2021/01/03 05:54:03;;;;;;;13.25;6.95;;;;;;;1.93;78.64;99191.63;3832044;23;20002;-77
2021/01/03 05:55:37;;;;;;;11.30;5.80;;;;;;;2.00;78.53;99194.69;3834281;23;20017;-77
2021/01/03 05:57:18;;;;;;;11.32;5.68;;;;;;;2.02;78.44;99198.88;3832754;23;20017;-78
2021/01/03 05:58:54;;;;;;;15.00;7.55;;;;;;;2.03;78.37;99190.00;3833431;23;20036;-77
2021/01/03 06:00:27;;;;;;;13.10;7.05;;;;;;;2.05;78.33;99181.16;3832874;23;20085;-77
2021/01/03 06:02:07;;;;;;;10.43;5.65;;;;;;;2.12;78.31;99192.94;3835678;23;20024;-77
2021/01/03 06:03:39;;;;;;;15.82;7.38;;;;;;;2.10;78.19;99194.84;3831099;23;20017;-77
2021/01/03 06:05:15;;;;;;;13.68;8.20;;;;;;;2.11;78.28;99186.84;3835532;23;20603;-77
2021/01/03 06:07:14;;;;;;;11.88;6.78;;;;;;;2.11;77.94;99183.34;3832365;23;20033;-77
2021/01/03 06:08:48;;;;;;;14.52;7.38;;;;;;;2.10;78.11;99186.94;3829636;23;20013;-77
2021/01/03 06:10:30;;;;;;;15.15;9.15;;;;;;;2.07;78.17;99197.72;3834984;23;20068;-77
2021/01/03 06:12:03;;;;;;;12.02;6.55;;;;;;;2.07;78.30;99185.34;3832020;23;20040;-77
2021/01/03 06:13:46;;;;;;;13.77;7.40;;;;;;;2.07;78.13;99187.16;3835006;23;20077;-78
2021/01/03 06:15:17;;;;;;;14.93;7.82;;;;;;;2.13;78.13;99191.97;3831687;23;20005;-77
2021/01/03 06:16:49;;;;;;;11.43;6.70;;;;;;;2.10;78.06;99189.56;3834997;23;20025;-78
2021/01/03 06:18:32;;;;;;;14.18;7.90;;;;;;;2.04;78.04;99196.13;3832462;23;20029;-77
2021/01/03 06:20:09;;;;;;;13.30;6.63;;;;;;;2.00;78.31;99190.22;3834251;23;20021;-77
2021/01/03 06:21:42;;;;;;;13.93;7.40;;;;;;;2.02;78.18;99188.31;3832585;23;20009;-77
2021/01/03 06:23:23;;;;;;;13.65;6.75;;;;;;;2.01;78.25;99194.56;3834661;23;20018;-77
2021/01/03 06:24:54;;;;;;;;;;;;;;;1.89;78.83;99192.78;3831383;23;20016;-78
2021/01/03 06:26:33;;;;;;;13.07;6.10;;;;;;;1.93;78.42;99196.06;3831737;23;19952;-77
2021/01/03 06:28:09;;;;;;;11.90;5.82;;;;;;;1.95;78.40;99192.38;3834229;23;20013;-77
2021/01/03 06:29:51;;;;;;;14.15;7.43;;;;;;;1.98;78.41;99186.03;3832412;23;20010;-77
2021/01/03 06:32:14;;;;;;;10.98;5.65;;;;;;;1.91;78.32;99195.34;3834622;23;20037;-78
2021/01/03 06:33:59;;;;;;;15.38;8.15;;;;;;;1.81;78.54;99195.13;3807572;23;20013;-78
2021/01/03 06:35:40;;;;;;;10.93;6.85;;;;;;;1.83;78.72;99193.25;3831570;23;20013;-78
2021/01/03 06:37:22;;;;;;;13.77;7.10;;;;;;;1.86;78.55;99193.03;3835049;23;20010;-78
2021/01/03 06:39:09;;;;;;;12.68;7.38;;;;;;;1.90;78.44;99189.22;3831899;23;20010;-78
2021/01/03 06:40:45;;;;;;;16.33;8.60;;;;;;;1.92;78.46;99194.38;3834251;23;20139;-78
2021/01/03 06:43:04;;;;;;;14.20;7.35;;;;;;;1.93;78.48;99191.63;3832821;23;20006;-78
2021/01/03 06:45:28;;;;;;;14.00;7.43;;;;;;;1.93;78.56;99186.34;3832743;23;20009;-79
2021/01/03 06:47:33;;;;;;;13.80;7.95;;;;;;;1.94;78.50;99185.41;3834342;23;20025;-78
2021/01/03 06:49:45;;;;;;;14.52;7.80;;;;;;;1.94;78.59;99188.03;3827518;23;20044;-79
2021/01/03 06:51:41;;;;;;;11.15;6.30;;;;;;;1.99;78.21;99183.28;3831513;23;20041;-79
2021/01/03 06:54:01;;;;;;;10.57;5.03;;;;;;;2.01;78.22;99186.66;3834693;23;20044;-79
2021/01/03 06:56:09;;;;;;;10.32;5.35;;;;;;;2.00;78.21;99182.31;3795695;23;20014;-78
2021/01/03 06:58:13;;;;;;;13.52;7.20;;;;;;;2.04;78.18;99182.94;3831928;23;20026;-79
2021/01/03 07:00:23;;;;;;;13.45;7.10;;;;;;;2.02;78.32;99193.59;3832184;23;20128;-79
2021/01/03 07:02:32;;;;;;;14.07;7.13;;;;;;;2.04;78.21;99188.22;3836497;23;20049;-79
2021/01/03 07:04:41;;;;;;;13.80;7.00;;;;;;;2.03;78.03;99189.19;3832861;23;20021;-79
2021/01/03 07:06:12;;;;;;;12.77;5.82;;;;;;;2.02;78.23;99183.06;3834107;23;20028;-79
2021/01/03 07:07:58;;;;;;;8.52;5.03;;;;;;;2.04;77.95;99188.22;3835610;23;20013;-78
2021/01/03 07:09:31;;;;;;;11.90;6.80;;;;;;;2.04;78.28;99188.22;3834141;23;20186;-78
2021/01/03 07:11:02;;;;;;;11.00;5.85;;;;;;;2.08;78.08;99180.94;3836355;23;20014;-78
2021/01/03 07:12:38;;;;;;;12.38;6.45;;;;;;;2.06;77.93;99188.94;3832891;23;20020;-78
2021/01/03 07:14:11;;;;;;;12.63;6.45;;;;;;;2.07;78.22;99200.34;3836224;23;20036;-78
2021/01/03 07:15:42;;;;;;;15.00;7.88;;;;;;;2.09;78.06;99201.06;3832051;23;20029;-78
2021/01/03 07:17:15;;;;;;;;;;;;;;;2.02;78.54;99192.78;3836997;23;20005;-78
2021/01/03 07:18:52;;;;;;;9.88;5.25;;;;;;;2.05;78.13;99194.34;3833788;23;19915;-78
2021/01/03 07:20:29;;;;;;;12.20;7.07;;;;;;;2.05;78.21;99191.69;3833110;23;20017;-78
2021/01/03 07:22:12;;;;;;;14.70;8.13;;;;;;;2.05;77.98;99186.44;3836040;23;20021;-78
2021/01/03 07:23:49;;;;;;;14.32;7.90;;;;;;;2.05;78.31;99192.53;3829976;23;20371;-79
2021/01/03 07:39:09;;;;;;;12.45;6.10;;;;;;;2.02;77.84;99198.03;3837476;23;20009;-79
2021/01/03 07:40:49;;;;;;;14.30;8.38;;;;;;;2.01;77.79;99191.09;3835530;23;20079;-78
2021/01/03 07:42:24;;;;;;;14.55;7.85;;;;;;;2.00;77.96;99197.31;3834042;23;20009;-79
2021/01/03 07:44:08;;;;;;;14.73;7.93;;;;;;;2.08;77.87;99199.41;3835043;23;20009;-78
2021/01/03 07:45:45;;;;;;;13.68;7.25;;;;;;;2.05;77.91;99192.53;3832849;23;20013;-80
2021/01/03 07:47:38;;;;;;;13.15;8.43;;;;;;;2.03;77.69;99202.38;3835615;23;20093;-79
2021/01/03 07:49:44;;;;;;;13.52;6.57;;;;;;;2.00;77.65;99203.41;3833337;23;20002;-79
2021/01/03 07:51:42;;;;;;;11.32;6.15;;;;;;;1.92;77.93;99208.41;3784795;23;20118;-78
2021/01/03 07:53:25;;;;;;;12.80;7.55;;;;;;;1.95;77.97;99208.19;3835332;23;20014;-79